Raisin, California
Current Conditions -  °F | °C
As of 5:53 PM on Wednesday 22 Oct 2014 (Local Time) from KFAT Reporting Station
Broken Clouds Broken Clouds  
Wind Chill: 75°   Ceiling: 25000
Heat Index: 75°   Visibility: 10mi
Dew Point: 43°   Wind: 8mph
Humidity: 32%   Direction: 300°WNW
Pressure: 30"   Gusts: NA
Location:  36.6°N, 119.9°W
Report Text: KFAT 230053Z 30007KT 10SM FEW150 SCT200 BKN250 24/06 A3000 RMK AO2 SLP156 T02390061
Loading
Personal Weather Stations






























Interactive Weather Map New forecast layout! Learn more

10-Day Weather Forecast

Advertisements
Track Severe Weather on mobile